aviador You're here:

KPRN Decoded Metar

in _UNIDENTIFIED
Report Time2017-11-20 21:56:00
UTC Time2017-11-20 22:43:59
Flight Rules vfr VFR
Wind190° at 03 kt
W.Decomp.*RWY 14: 1.8 kt HW 2.4 kt RCW
W.Rank190° ranks 7
Current wind is below 190° avg. (5.5)
Visibility9999 m
Phenomena:N/A
Clouds:N/A
Expected CloudBase > 4,800 ft AGL from Temp-Dew spread
CeilingNone
Temp14°C (ISA -0)
Dew Point02°C (44% RH)
AAT11.2°C
QNH1020 hPa
Density Alt305 ft
Elevation453 ft
Report Wrong Elevation
Raw Report
METAR KPRN 202156Z AUTO 19003KT 10SM CLR 14/02 A3012 RMK AO2 SLP200
T01390017=

Extra information for KPRN:More info

Metar Taf Metar & Taf Last 4 Metars F.Rules Stats Wind Profile Meteogram Temp Stats Metar ALERT Operation Metar Decoded Social comments